sensor_id;sensor_type;location;lat;lon;timestamp;temperature;humidity
10306;DHT22;5198;52.382;9.020;2022-11-20T00:02:38;-2.20;99.90
10306;DHT22;5198;52.382;9.020;2022-11-20T00:06:42;-2.20;99.90
10306;DHT22;5198;52.382;9.020;2022-11-20T00:15:00;-2.20;99.90
10306;DHT22;5198;52.382;9.020;2022-11-20T00:19:03;-2.30;99.90
10306;DHT22;5198;52.382;9.020;2022-11-20T00:23:07;-2.30;99.90
10306;DHT22;5198;52.382;9.020;2022-11-20T00:27:10;-2.30;99.90
10306;DHT22;5198;52.382;9.020;2022-11-20T00:31:13;-2.30;99.90
10306;DHT22;5198;52.382;9.020;2022-11-20T00:35:17;-2.30;99.90
10306;DHT22;5198;52.382;9.020;2022-11-20T00:39:21;-2.40;99.90
10306;DHT22;5198;52.382;9.020;2022-11-20T00:43:24;-2.40;99.90
10306;DHT22;5198;52.382;9.020;2022-11-20T00:47:27;-2.40;99.90
10306;DHT22;5198;52.382;9.020;2022-11-20T00:59:39;-2.50;99.90
10306;DHT22;5198;52.382;9.020;2022-11-20T01:03:43;-2.50;99.90
10306;DHT22;5198;52.382;9.020;2022-11-20T01:07:46;-2.60;99.90
10306;DHT22;5198;52.382;9.020;2022-11-20T01:11:49;-2.60;99.90
10306;DHT22;5198;52.382;9.020;2022-11-20T01:15:53;-2.60;99.90
10306;DHT22;5198;52.382;9.020;2022-11-20T01:19:56;-2.70;99.90
10306;DHT22;5198;52.382;9.020;2022-11-20T01:23:59;-2.70;99.90
10306;DHT22;5198;52.382;9.020;2022-11-20T01:28:02;-2.70;99.90
10306;DHT22;5198;52.382;9.020;2022-11-20T01:32:07;-2.80;99.90
10306;DHT22;5198;52.382;9.020;2022-11-20T01:36:10;-2.80;99.90
10306;DHT22;5198;52.382;9.020;2022-11-20T01:40:13;-2.80;99.90
10306;DHT22;5198;52.382;9.020;2022-11-20T01:44:17;-2.80;99.90
10306;DHT22;5198;52.382;9.020;2022-11-20T01:48:21;-2.90;99.90
10306;DHT22;5198;52.382;9.020;2022-11-20T01:52:26;-2.90;99.90
10306;DHT22;5198;52.382;9.020;2022-11-20T01:56:31;-2.90;99.90
10306;DHT22;5198;52.382;9.020;2022-11-20T02:00:37;-2.90;99.90
10306;DHT22;5198;52.382;9.020;2022-11-20T02:04:41;-2.90;99.90
10306;DHT22;5198;52.382;9.020;2022-11-20T02:08:44;-2.90;99.90
10306;DHT22;5198;52.382;9.020;2022-11-20T02:12:47;-2.90;99.90
10306;DHT22;5198;52.382;9.020;2022-11-20T02:17:07;-2.90;99.90
10306;DHT22;5198;52.382;9.020;2022-11-20T02:21:15;-3.00;99.90
10306;DHT22;5198;52.382;9.020;2022-11-20T02:25:23;-3.00;99.90
10306;DHT22;5198;52.382;9.020;2022-11-20T02:29:28;-3.10;99.90
10306;DHT22;5198;52.382;9.020;2022-11-20T02:33:33;-3.10;99.90
10306;DHT22;5198;52.382;9.020;2022-11-20T02:37:37;-3.20;99.90
10306;DHT22;5198;52.382;9.020;2022-11-20T02:41:42;-3.30;99.90
10306;DHT22;5198;52.382;9.020;2022-11-20T02:45:45;-3.30;99.90
10306;DHT22;5198;52.382;9.020;2022-11-20T02:49:48;-3.40;99.90
10306;DHT22;5198;52.382;9.020;2022-11-20T02:53:51;-3.40;99.90
10306;DHT22;5198;52.382;9.020;2022-11-20T02:57:55;-3.40;99.90
10306;DHT22;5198;52.382;9.020;2022-11-20T03:01:58;-3.40;99.90
10306;DHT22;5198;52.382;9.020;2022-11-20T03:06:01;-3.40;99.90
10306;DHT22;5198;52.382;9.020;2022-11-20T03:10:04;-3.40;99.90
10306;DHT22;5198;52.382;9.020;2022-11-20T03:14:09;-3.40;99.90
10306;DHT22;5198;52.382;9.020;2022-11-20T03:18:12;-3.30;99.90
10306;DHT22;5198;52.382;9.020;2022-11-20T03:22:15;-3.30;99.90
10306;DHT22;5198;52.382;9.020;2022-11-20T03:26:18;-3.30;99.90
10306;DHT22;5198;52.382;9.020;2022-11-20T03:30:23;-3.30;99.90
10306;DHT22;5198;52.382;9.020;2022-11-20T03:34:31;-3.20;99.90
10306;DHT22;5198;52.382;9.020;2022-11-20T03:38:34;-3.20;99.90
10306;DHT22;5198;52.382;9.020;2022-11-20T03:42:37;-3.20;99.90
10306;DHT22;5198;52.382;9.020;2022-11-20T03:46:50;-3.20;99.90
10306;DHT22;5198;52.382;9.020;2022-11-20T03:50:54;-3.30;99.90
10306;DHT22;5198;52.382;9.020;2022-11-20T03:55:09;-3.30;99.90
10306;DHT22;5198;52.382;9.020;2022-11-20T03:59:12;-3.30;99.90
10306;DHT22;5198;52.382;9.020;2022-11-20T04:03:16;-3.30;99.90
10306;DHT22;5198;52.382;9.020;2022-11-20T04:07:19;-3.20;99.90
10306;DHT22;5198;52.382;9.020;2022-11-20T04:11:23;-3.20;99.90
10306;DHT22;5198;52.382;9.020;2022-11-20T04:15:26;-3.20;99.90
10306;DHT22;5198;52.382;9.020;2022-11-20T04:19:30;-3.20;99.90
10306;DHT22;5198;52.382;9.020;2022-11-20T04:23:33;-3.10;99.90
10306;DHT22;5198;52.382;9.020;2022-11-20T04:27:36;-3.00;99.90
10306;DHT22;5198;52.382;9.020;2022-11-20T04:31:39;-3.00;99.90
10306;DHT22;5198;52.382;9.020;2022-11-20T04:35:43;-2.90;99.90
10306;DHT22;5198;52.382;9.020;2022-11-20T04:39:47;-2.90;99.90
10306;DHT22;5198;52.382;9.020;2022-11-20T04:43:51;-2.80;99.90
10306;DHT22;5198;52.382;9.020;2022-11-20T04:47:55;-2.70;99.90
10306;DHT22;5198;52.382;9.020;2022-11-20T04:51:59;-2.60;99.90
10306;DHT22;5198;52.382;9.020;2022-11-20T04:56:03;-2.60;99.90
10306;DHT22;5198;52.382;9.020;2022-11-20T05:00:06;-2.50;99.90
10306;DHT22;5198;52.382;9.020;2022-11-20T05:04:09;-2.50;99.90
10306;DHT22;5198;52.382;9.020;2022-11-20T05:08:14;-2.40;99.90
10306;DHT22;5198;52.382;9.020;2022-11-20T05:12:17;-2.40;99.90
10306;DHT22;5198;52.382;9.020;2022-11-20T05:16:21;-2.30;99.90
10306;DHT22;5198;52.382;9.020;2022-11-20T05:20:24;-2.20;99.90
10306;DHT22;5198;52.382;9.020;2022-11-20T05:24:28;-2.20;99.90
10306;DHT22;5198;52.382;9.020;2022-11-20T05:28:31;-2.10;99.90
10306;DHT22;5198;52.382;9.020;2022-11-20T05:32:34;-2.10;99.90
10306;DHT22;5198;52.382;9.020;2022-11-20T05:36:37;-2.00;99.90
10306;DHT22;5198;52.382;9.020;2022-11-20T05:40:42;-2.00;99.90
10306;DHT22;5198;52.382;9.020;2022-11-20T05:44:45;-1.90;99.90
10306;DHT22;5198;52.382;9.020;2022-11-20T05:48:48;-1.90;99.90
10306;DHT22;5198;52.382;9.020;2022-11-20T05:52:51;-1.80;99.90
10306;DHT22;5198;52.382;9.020;2022-11-20T05:56:55;-1.70;99.90
10306;DHT22;5198;52.382;9.020;2022-11-20T06:01:03;-1.70;99.90
10306;DHT22;5198;52.382;9.020;2022-11-20T06:05:06;-1.70;99.90
10306;DHT22;5198;52.382;9.020;2022-11-20T06:09:09;-1.60;99.90
10306;DHT22;5198;52.382;9.020;2022-11-20T06:13:13;-1.60;99.90
10306;DHT22;5198;52.382;9.020;2022-11-20T06:17:16;-1.60;99.90
10306;DHT22;5198;52.382;9.020;2022-11-20T06:21:19;-1.50;99.90
10306;DHT22;5198;52.382;9.020;2022-11-20T06:25:23;-1.50;99.90
10306;DHT22;5198;52.382;9.020;2022-11-20T06:29:27;-1.50;99.90
10306;DHT22;5198;52.382;9.020;2022-11-20T06:33:34;-1.50;99.90
10306;DHT22;5198;52.382;9.020;2022-11-20T06:37:37;-1.50;99.90
10306;DHT22;5198;52.382;9.020;2022-11-20T06:41:40;-1.50;99.90
10306;DHT22;5198;52.382;9.020;2022-11-20T06:45:44;-1.50;99.90
10306;DHT22;5198;52.382;9.020;2022-11-20T06:49:47;-1.40;99.90
10306;DHT22;5198;52.382;9.020;2022-11-20T06:53:50;-1.50;99.90
10306;DHT22;5198;52.382;9.020;2022-11-20T06:57:53;-1.50;99.90
10306;DHT22;5198;52.382;9.020;2022-11-20T07:01:58;-1.50;99.90
10306;DHT22;5198;52.382;9.020;2022-11-20T07:06:01;-1.50;99.90
10306;DHT22;5198;52.382;9.020;2022-11-20T07:10:04;-1.50;99.90
10306;DHT22;5198;52.382;9.020;2022-11-20T07:14:07;-1.60;99.90
10306;DHT22;5198;52.382;9.020;2022-11-20T07:18:11;-1.50;99.90
10306;DHT22;5198;52.382;9.020;2022-11-20T07:22:14;-1.50;99.90
10306;DHT22;5198;52.382;9.020;2022-11-20T07:26:17;-1.50;99.90
10306;DHT22;5198;52.382;9.020;2022-11-20T07:30:20;-1.50;99.90
10306;DHT22;5198;52.382;9.020;2022-11-20T07:34:25;-1.40;99.90
10306;DHT22;5198;52.382;9.020;2022-11-20T07:38:28;-1.40;99.90
10306;DHT22;5198;52.382;9.020;2022-11-20T07:42:31;-1.30;99.90
10306;DHT22;5198;52.382;9.020;2022-11-20T07:46:34;-1.30;99.90
10306;DHT22;5198;52.382;9.020;2022-11-20T07:50:38;-1.20;99.90
10306;DHT22;5198;52.382;9.020;2022-11-20T07:54:41;-1.20;99.90
10306;DHT22;5198;52.382;9.020;2022-11-20T07:58:44;-1.10;99.90
10306;DHT22;5198;52.382;9.020;2022-11-20T08:02:46;-1.10;99.90
10306;DHT22;5198;52.382;9.020;2022-11-20T08:06:51;-1.00;99.90
10306;DHT22;5198;52.382;9.020;2022-11-20T08:10:56;-1.00;99.90
10306;DHT22;5198;52.382;9.020;2022-11-20T08:15:19;-1.00;99.90
10306;DHT22;5198;52.382;9.020;2022-11-20T08:19:22;-0.90;99.90
10306;DHT22;5198;52.382;9.020;2022-11-20T08:23:26;-0.90;99.90
10306;DHT22;5198;52.382;9.020;2022-11-20T08:27:31;-0.80;99.90
10306;DHT22;5198;52.382;9.020;2022-11-20T08:31:34;-0.80;99.90
10306;DHT22;5198;52.382;9.020;2022-11-20T08:35:37;-0.80;99.90
10306;DHT22;5198;52.382;9.020;2022-11-20T08:39:43;-0.80;99.90
10306;DHT22;5198;52.382;9.020;2022-11-20T08:43:46;-0.70;99.90
10306;DHT22;5198;52.382;9.020;2022-11-20T08:47:49;-0.70;99.90
10306;DHT22;5198;52.382;9.020;2022-11-20T08:51:52;-0.70;99.90
10306;DHT22;5198;52.382;9.020;2022-11-20T08:55:58;-0.60;99.90
10306;DHT22;5198;52.382;9.020;2022-11-20T09:00:01;-0.60;99.90
10306;DHT22;5198;52.382;9.020;2022-11-20T09:04:07;-0.50;99.90
10306;DHT22;5198;52.382;9.020;2022-11-20T09:08:10;-0.40;99.90
10306;DHT22;5198;52.382;9.020;2022-11-20T09:12:14;-0.30;99.90
10306;DHT22;5198;52.382;9.020;2022-11-20T09:16:17;-0.20;99.90
10306;DHT22;5198;52.382;9.020;2022-11-20T09:20:20;-0.10;99.90
10306;DHT22;5198;52.382;9.020;2022-11-20T09:24:23;0.10;99.90
10306;DHT22;5198;52.382;9.020;2022-11-20T09:28:27;0.20;99.90
10306;DHT22;5198;52.382;9.020;2022-11-20T09:32:30;0.40;99.90
10306;DHT22;5198;52.382;9.020;2022-11-20T09:36:33;0.50;99.90
10306;DHT22;5198;52.382;9.020;2022-11-20T09:40:36;0.60;99.90
10306;DHT22;5198;52.382;9.020;2022-11-20T09:44:51;0.70;99.90
10306;DHT22;5198;52.382;9.020;2022-11-20T09:49:02;0.70;99.90
10306;DHT22;5198;52.382;9.020;2022-11-20T09:57:11;0.80;99.90
10306;DHT22;5198;52.382;9.020;2022-11-20T10:01:16;0.90;99.90
10306;DHT22;5198;52.382;9.020;2022-11-20T10:05:21;0.90;99.90
10306;DHT22;5198;52.382;9.020;2022-11-20T10:09:26;0.90;99.90
10306;DHT22;5198;52.382;9.020;2022-11-20T10:13:34;1.00;99.90
10306;DHT22;5198;52.382;9.020;2022-11-20T10:17:50;1.00;99.90
10306;DHT22;5198;52.382;9.020;2022-11-20T10:21:59;1.10;99.90
10306;DHT22;5198;52.382;9.020;2022-11-20T10:26:12;1.20;99.90
10306;DHT22;5198;52.382;9.020;2022-11-20T10:30:19;1.20;99.90
10306;DHT22;5198;52.382;9.020;2022-11-20T10:34:25;1.30;99.90
10306;DHT22;5198;52.382;9.020;2022-11-20T10:38:33;1.30;99.90
10306;DHT22;5198;52.382;9.020;2022-11-20T10:42:37;1.40;99.90
10306;DHT22;5198;52.382;9.020;2022-11-20T10:46:45;1.40;99.90
10306;DHT22;5198;52.382;9.020;2022-11-20T10:50:57;1.40;99.90
10306;DHT22;5198;52.382;9.020;2022-11-20T10:55:05;1.50;99.90
10306;DHT22;5198;52.382;9.020;2022-11-20T10:59:23;1.60;99.90
10306;DHT22;5198;52.382;9.020;2022-11-20T11:03:29;1.70;99.90
10306;DHT22;5198;52.382;9.020;2022-11-20T11:07:35;1.90;99.90
10306;DHT22;5198;52.382;9.020;2022-11-20T11:11:39;2.00;99.90
10306;DHT22;5198;52.382;9.020;2022-11-20T11:15:42;2.10;99.90
10306;DHT22;5198;52.382;9.020;2022-11-20T11:19:45;2.20;99.90
10306;DHT22;5198;52.382;9.020;2022-11-20T11:27:52;2.60;99.90
10306;DHT22;5198;52.382;9.020;2022-11-20T11:32:03;2.70;99.90
10306;DHT22;5198;52.382;9.020;2022-11-20T11:36:16;2.80;99.90
10306;DHT22;5198;52.382;9.020;2022-11-20T11:44:27;2.80;99.90
10306;DHT22;5198;52.382;9.020;2022-11-20T11:48:54;3.20;99.90
10306;DHT22;5198;52.382;9.020;2022-11-20T11:53:00;3.40;99.90
10306;DHT22;5198;52.382;9.020;2022-11-20T11:57:05;3.70;99.90
10306;DHT22;5198;52.382;9.020;2022-11-20T12:01:17;3.80;99.90
10306;DHT22;5198;52.382;9.020;2022-11-20T12:05:23;3.80;99.90
10306;DHT22;5198;52.382;9.020;2022-11-20T12:09:28;4.00;99.90
10306;DHT22;5198;52.382;9.020;2022-11-20T12:13:44;4.10;99.90
10306;DHT22;5198;52.382;9.020;2022-11-20T12:17:48;4.10;99.90
10306;DHT22;5198;52.382;9.020;2022-11-20T12:21:54;4.10;99.90
10306;DHT22;5198;52.382;9.020;2022-11-20T12:26:04;4.10;99.90
10306;DHT22;5198;52.382;9.020;2022-11-20T12:30:09;4.00;99.90
10306;DHT22;5198;52.382;9.020;2022-11-20T12:34:27;4.00;99.90
10306;DHT22;5198;52.382;9.020;2022-11-20T12:42:59;4.20;99.90
10306;DHT22;5198;52.382;9.020;2022-11-20T12:47:22;4.30;99.90
10306;DHT22;5198;52.382;9.020;2022-11-20T12:51:33;4.30;99.90
10306;DHT22;5198;52.382;9.020;2022-11-20T12:55:41;4.30;99.90
10306;DHT22;5198;52.382;9.020;2022-11-20T13:04:18;4.30;99.90
10306;DHT22;5198;52.382;9.020;2022-11-20T14:29:32;3.90;99.90
10306;DHT22;5198;52.382;9.020;2022-11-20T14:33:37;3.80;99.90
10306;DHT22;5198;52.382;9.020;2022-11-20T14:37:40;3.70;99.90
10306;DHT22;5198;52.382;9.020;2022-11-20T14:41:49;3.60;99.90
10306;DHT22;5198;52.382;9.020;2022-11-20T14:45:56;3.50;99.90
10306;DHT22;5198;52.382;9.020;2022-11-20T14:49:59;3.40;99.90
10306;DHT22;5198;52.382;9.020;2022-11-20T14:54:10;3.20;99.90
10306;DHT22;5198;52.382;9.020;2022-11-20T14:58:20;3.10;99.90
10306;DHT22;5198;52.382;9.020;2022-11-20T15:02:24;3.00;99.90
10306;DHT22;5198;52.382;9.020;2022-11-20T15:06:28;2.90;99.90
10306;DHT22;5198;52.382;9.020;2022-11-20T15:10:32;2.80;99.90
10306;DHT22;5198;52.382;9.020;2022-11-20T15:14:35;2.70;99.90
10306;DHT22;5198;52.382;9.020;2022-11-20T15:18:41;2.60;99.90
10306;DHT22;5198;52.382;9.020;2022-11-20T15:22:44;2.60;99.90
10306;DHT22;5198;52.382;9.020;2022-11-20T15:26:47;2.50;99.90
10306;DHT22;5198;52.382;9.020;2022-11-20T15:30:50;2.40;99.90
10306;DHT22;5198;52.382;9.020;2022-11-20T15:34:54;2.30;99.90
10306;DHT22;5198;52.382;9.020;2022-11-20T15:38:57;2.20;99.90
10306;DHT22;5198;52.382;9.020;2022-11-20T15:43:00;2.10;99.90
10306;DHT22;5198;52.382;9.020;2022-11-20T15:47:14;2.10;99.90
10306;DHT22;5198;52.382;9.020;2022-11-20T15:51:21;2.00;99.90
10306;DHT22;5198;52.382;9.020;2022-11-20T15:55:26;1.90;99.90
10306;DHT22;5198;52.382;9.020;2022-11-20T15:59:29;1.90;99.90
10306;DHT22;5198;52.382;9.020;2022-11-20T16:03:33;1.80;99.90
10306;DHT22;5198;52.382;9.020;2022-11-20T16:07:37;1.80;99.90
10306;DHT22;5198;52.382;9.020;2022-11-20T16:11:40;1.80;99.90
10306;DHT22;5198;52.382;9.020;2022-11-20T16:15:43;1.80;99.90
10306;DHT22;5198;52.382;9.020;2022-11-20T16:19:48;1.70;99.90
10306;DHT22;5198;52.382;9.020;2022-11-20T16:23:52;1.70;99.90
10306;DHT22;5198;52.382;9.020;2022-11-20T16:27:55;1.70;99.90
10306;DHT22;5198;52.382;9.020;2022-11-20T16:31:58;1.60;99.90
10306;DHT22;5198;52.382;9.020;2022-11-20T16:36:05;1.60;99.90
10306;DHT22;5198;52.382;9.020;2022-11-20T16:40:11;1.60;99.90
10306;DHT22;5198;52.382;9.020;2022-11-20T16:44:14;1.50;99.90
10306;DHT22;5198;52.382;9.020;2022-11-20T16:48:17;1.50;99.90
10306;DHT22;5198;52.382;9.020;2022-11-20T16:52:19;1.50;99.90
10306;DHT22;5198;52.382;9.020;2022-11-20T16:56:24;1.50;99.90
10306;DHT22;5198;52.382;9.020;2022-11-20T17:00:27;1.50;99.90
10306;DHT22;5198;52.382;9.020;2022-11-20T17:04:30;1.40;99.90
10306;DHT22;5198;52.382;9.020;2022-11-20T17:08:33;1.40;99.90
10306;DHT22;5198;52.382;9.020;2022-11-20T17:12:38;1.40;99.90
10306;DHT22;5198;52.382;9.020;2022-11-20T17:16:40;1.40;99.90
10306;DHT22;5198;52.382;9.020;2022-11-20T17:20:50;1.40;99.90
10306;DHT22;5198;52.382;9.020;2022-11-20T17:24:53;1.50;99.90
10306;DHT22;5198;52.382;9.020;2022-11-20T17:28:57;1.40;99.90
10306;DHT22;5198;52.382;9.020;2022-11-20T17:33:00;1.50;99.90
10306;DHT22;5198;52.382;9.020;2022-11-20T17:37:03;1.50;99.90
10306;DHT22;5198;52.382;9.020;2022-11-20T17:41:07;1.50;99.90
10306;DHT22;5198;52.382;9.020;2022-11-20T17:45:11;1.50;99.90
10306;DHT22;5198;52.382;9.020;2022-11-20T17:49:14;1.50;99.90
10306;DHT22;5198;52.382;9.020;2022-11-20T17:53:23;1.50;99.90
10306;DHT22;5198;52.382;9.020;2022-11-20T17:57:26;1.50;99.90
10306;DHT22;5198;52.382;9.020;2022-11-20T18:01:54;1.60;99.90
10306;DHT22;5198;52.382;9.020;2022-11-20T18:06:07;1.60;99.90
10306;DHT22;5198;52.382;9.020;2022-11-20T18:10:11;1.60;99.90
10306;DHT22;5198;52.382;9.020;2022-11-20T18:14:14;1.60;99.90
10306;DHT22;5198;52.382;9.020;2022-11-20T18:18:36;1.60;99.90
10306;DHT22;5198;52.382;9.020;2022-11-20T18:22:39;1.60;99.90
10306;DHT22;5198;52.382;9.020;2022-11-20T18:26:42;1.60;99.90
10306;DHT22;5198;52.382;9.020;2022-11-20T18:30:46;1.70;99.90
10306;DHT22;5198;52.382;9.020;2022-11-20T18:34:51;1.70;99.90
10306;DHT22;5198;52.382;9.020;2022-11-20T18:38:55;1.70;99.90
10306;DHT22;5198;52.382;9.020;2022-11-20T18:42:58;1.70;99.90
10306;DHT22;5198;52.382;9.020;2022-11-20T18:47:19;1.70;99.90
10306;DHT22;5198;52.382;9.020;2022-11-20T18:51:24;1.70;99.90
10306;DHT22;5198;52.382;9.020;2022-11-20T18:55:27;1.70;99.90
10306;DHT22;5198;52.382;9.020;2022-11-20T18:59:30;1.70;99.90
10306;DHT22;5198;52.382;9.020;2022-11-20T19:03:33;1.70;99.90
10306;DHT22;5198;52.382;9.020;2022-11-20T19:07:37;1.70;99.90
10306;DHT22;5198;52.382;9.020;2022-11-20T19:11:41;1.80;99.90
10306;DHT22;5198;52.382;9.020;2022-11-20T19:15:44;1.80;99.90
10306;DHT22;5198;52.382;9.020;2022-11-20T19:19:47;1.80;99.90
10306;DHT22;5198;52.382;9.020;2022-11-20T19:23:51;1.80;99.90
10306;DHT22;5198;52.382;9.020;2022-11-20T19:27:55;1.80;99.90
10306;DHT22;5198;52.382;9.020;2022-11-20T19:31:58;1.80;99.90
10306;DHT22;5198;52.382;9.020;2022-11-20T19:36:06;1.80;99.90
10306;DHT22;5198;52.382;9.020;2022-11-20T19:40:11;1.80;99.90
10306;DHT22;5198;52.382;9.020;2022-11-20T19:44:14;1.80;99.90
10306;DHT22;5198;52.382;9.020;2022-11-20T19:48:17;1.90;99.90
10306;DHT22;5198;52.382;9.020;2022-11-20T19:52:20;1.90;99.90
10306;DHT22;5198;52.382;9.020;2022-11-20T19:56:25;1.90;99.90
10306;DHT22;5198;52.382;9.020;2022-11-20T20:00:28;1.90;99.90
10306;DHT22;5198;52.382;9.020;2022-11-20T20:04:33;1.90;99.90
10306;DHT22;5198;52.382;9.020;2022-11-20T20:08:36;1.90;99.90
10306;DHT22;5198;52.382;9.020;2022-11-20T20:12:40;1.90;99.90
10306;DHT22;5198;52.382;9.020;2022-11-20T20:16:43;1.90;99.90
10306;DHT22;5198;52.382;9.020;2022-11-20T20:20:46;2.00;99.90
10306;DHT22;5198;52.382;9.020;2022-11-20T20:24:49;2.00;99.90
10306;DHT22;5198;52.382;9.020;2022-11-20T20:28:54;2.00;99.90
10306;DHT22;5198;52.382;9.020;2022-11-20T20:32:57;2.00;99.90
10306;DHT22;5198;52.382;9.020;2022-11-20T20:36:59;1.90;99.90
10306;DHT22;5198;52.382;9.020;2022-11-20T20:41:04;2.00;99.90
10306;DHT22;5198;52.382;9.020;2022-11-20T20:45:09;2.00;99.90
10306;DHT22;5198;52.382;9.020;2022-11-20T20:49:12;2.00;99.90
10306;DHT22;5198;52.382;9.020;2022-11-20T20:53:15;2.00;99.90
10306;DHT22;5198;52.382;9.020;2022-11-20T20:57:18;2.00;99.90
10306;DHT22;5198;52.382;9.020;2022-11-20T21:01:22;2.00;99.90
10306;DHT22;5198;52.382;9.020;2022-11-20T21:05:29;2.00;99.90
10306;DHT22;5198;52.382;9.020;2022-11-20T21:09:32;2.00;99.90
10306;DHT22;5198;52.382;9.020;2022-11-20T21:13:35;2.00;99.90
10306;DHT22;5198;52.382;9.020;2022-11-20T21:17:40;2.00;99.90
10306;DHT22;5198;52.382;9.020;2022-11-20T21:21:44;2.00;99.90
10306;DHT22;5198;52.382;9.020;2022-11-20T21:26:05;2.00;99.90
10306;DHT22;5198;52.382;9.020;2022-11-20T21:30:09;1.90;99.90
10306;DHT22;5198;52.382;9.020;2022-11-20T21:34:13;2.00;99.90
10306;DHT22;5198;52.382;9.020;2022-11-20T21:38:17;1.90;99.90
10306;DHT22;5198;52.382;9.020;2022-11-20T21:42:20;1.90;99.90
10306;DHT22;5198;52.382;9.020;2022-11-20T21:46:23;2.00;99.90
10306;DHT22;5198;52.382;9.020;2022-11-20T21:50:27;2.00;99.90
10306;DHT22;5198;52.382;9.020;2022-11-20T21:54:30;2.00;99.90
10306;DHT22;5198;52.382;9.020;2022-11-20T21:58:37;1.90;99.90
10306;DHT22;5198;52.382;9.020;2022-11-20T22:02:49;2.00;99.90
10306;DHT22;5198;52.382;9.020;2022-11-20T22:06:53;1.90;99.90
10306;DHT22;5198;52.382;9.020;2022-11-20T22:10:58;1.90;99.90
10306;DHT22;5198;52.382;9.020;2022-11-20T22:15:03;2.00;99.90
10306;DHT22;5198;52.382;9.020;2022-11-20T22:19:06;2.00;99.90
10306;DHT22;5198;52.382;9.020;2022-11-20T22:23:10;1.90;99.90
10306;DHT22;5198;52.382;9.020;2022-11-20T22:27:14;2.00;99.90
10306;DHT22;5198;52.382;9.020;2022-11-20T22:31:17;1.90;99.90
10306;DHT22;5198;52.382;9.020;2022-11-20T22:35:21;1.90;99.90
10306;DHT22;5198;52.382;9.020;2022-11-20T22:39:25;1.90;99.90
10306;DHT22;5198;52.382;9.020;2022-11-20T22:43:28;1.90;99.90
10306;DHT22;5198;52.382;9.020;2022-11-20T22:47:31;1.90;99.90
10306;DHT22;5198;52.382;9.020;2022-11-20T22:51:35;1.90;99.90
10306;DHT22;5198;52.382;9.020;2022-11-20T22:55:40;1.90;99.90
10306;DHT22;5198;52.382;9.020;2022-11-20T22:59:43;1.90;99.90
10306;DHT22;5198;52.382;9.020;2022-11-20T23:03:47;1.90;99.90
10306;DHT22;5198;52.382;9.020;2022-11-20T23:07:50;1.90;99.90
10306;DHT22;5198;52.382;9.020;2022-11-20T23:11:54;1.80;99.90
10306;DHT22;5198;52.382;9.020;2022-11-20T23:15:59;1.80;99.90
10306;DHT22;5198;52.382;9.020;2022-11-20T23:20:05;1.90;99.90
10306;DHT22;5198;52.382;9.020;2022-11-20T23:24:08;1.80;99.90
10306;DHT22;5198;52.382;9.020;2022-11-20T23:28:13;1.80;99.90
10306;DHT22;5198;52.382;9.020;2022-11-20T23:32:16;1.80;99.90
10306;DHT22;5198;52.382;9.020;2022-11-20T23:36:19;1.90;99.90
10306;DHT22;5198;52.382;9.020;2022-11-20T23:40:22;1.90;99.90
10306;DHT22;5198;52.382;9.020;2022-11-20T23:44:26;1.80;99.90
10306;DHT22;5198;52.382;9.020;2022-11-20T23:48:30;1.80;99.90
10306;DHT22;5198;52.382;9.020;2022-11-20T23:52:33;1.80;99.90
10306;DHT22;5198;52.382;9.020;2022-11-20T23:56:36;1.90;99.90
